createdAt,value
2019-05-10T00:00:08.692Z,10.86
2019-05-10T00:02:55.444Z,10.82
2019-05-10T00:05:41.727Z,10.90
2019-05-10T00:08:27.998Z,10.77
2019-05-10T00:11:34.347Z,10.70
2019-05-10T00:14:28.722Z,10.60
2019-05-10T00:17:02.012Z,10.64
2019-05-10T00:19:30.609Z,10.57
2019-05-10T00:21:59.212Z,10.62
2019-05-10T00:24:27.836Z,10.48
2019-05-10T00:26:56.470Z,10.50
2019-05-10T00:29:25.175Z,10.53
2019-05-10T00:31:53.778Z,10.45
2019-05-10T00:34:22.384Z,10.39
2019-05-10T00:36:51.074Z,10.32
2019-05-10T00:39:19.685Z,10.36
2019-05-10T00:41:48.327Z,10.39
2019-05-10T00:44:16.933Z,10.36
2019-05-10T00:46:45.554Z,10.36
2019-05-10T00:49:14.261Z,10.35
2019-05-10T00:51:42.922Z,10.36
2019-05-10T00:54:11.528Z,10.25
2019-05-10T00:56:40.157Z,10.21
2019-05-10T00:59:08.758Z,10.18
2019-05-10T01:01:37.391Z,10.26
2019-05-10T01:04:06.041Z,10.32
2019-05-10T01:06:34.667Z,10.28
2019-05-10T01:09:04.444Z,10.24
2019-05-10T01:11:33.074Z,10.27
2019-05-10T01:14:01.663Z,10.28
2019-05-10T01:16:30.275Z,10.25
2019-05-10T01:18:58.901Z,10.17
2019-05-10T01:21:27.643Z,10.24
2019-05-10T01:23:56.235Z,10.23
2019-05-10T01:26:24.852Z,10.35
2019-05-10T01:28:53.467Z,10.29
2019-05-10T01:31:22.073Z,10.28
2019-05-10T01:33:50.678Z,10.30
2019-05-10T01:36:20.851Z,10.30
2019-05-10T01:38:49.464Z,10.37
2019-05-10T01:41:18.149Z,10.42
2019-05-10T01:43:46.866Z,10.38
2019-05-10T01:46:15.482Z,10.37
2019-05-10T01:48:44.155Z,10.36
2019-05-10T01:51:12.767Z,10.40
2019-05-10T01:53:41.399Z,10.35
2019-05-10T01:56:10.047Z,10.40
2019-05-10T01:58:38.649Z,10.35
2019-05-10T02:01:07.304Z,10.29
2019-05-10T02:03:36.020Z,10.26
2019-05-10T02:06:04.713Z,10.27
2019-05-10T02:08:33.312Z,10.20
2019-05-10T02:11:02.317Z,10.14
2019-05-10T02:13:30.931Z,10.19
2019-05-10T02:15:59.620Z,10.16
2019-05-10T02:18:28.349Z,10.19
2019-05-10T02:20:56.958Z,10.09
2019-05-10T02:23:25.581Z,10.08
2019-05-10T02:26:08.353Z,10.07
2019-05-10T02:28:24.650Z,10.00
2019-05-10T02:30:53.269Z,9.93
2019-05-10T02:33:21.998Z,9.87
2019-05-10T02:35:50.606Z,9.90
2019-05-10T02:38:19.233Z,9.71
2019-05-10T02:40:47.843Z,9.75
2019-05-10T02:43:16.558Z,9.65
2019-05-10T02:45:45.164Z,9.62
2019-05-10T02:48:13.793Z,9.56
2019-05-10T02:50:42.390Z,9.57
2019-05-10T02:53:11.287Z,9.48
2019-05-10T02:55:40.163Z,9.52
2019-05-10T02:58:08.982Z,9.59
2019-05-10T03:00:41.010Z,9.57
2019-05-10T03:03:09.701Z,9.61
2019-05-10T03:05:38.386Z,9.59
2019-05-10T03:08:07.018Z,9.47
2019-05-10T03:10:38.450Z,9.45
2019-05-10T03:13:07.218Z,9.48
2019-05-10T03:15:37.344Z,9.60
2019-05-10T03:18:06.139Z,9.57
2019-05-10T03:20:36.627Z,9.63
2019-05-10T03:23:05.325Z,9.63
2019-05-10T03:25:34.185Z,9.75
2019-05-10T03:28:02.803Z,9.65
2019-05-10T03:30:31.659Z,9.61
2019-05-10T03:33:00.286Z,9.61
2019-05-10T03:35:29.140Z,9.70
2019-05-10T03:37:57.897Z,9.79
2019-05-10T03:40:26.513Z,9.70
2019-05-10T03:42:55.256Z,9.65
2019-05-10T03:45:23.889Z,9.54
2019-05-10T03:47:52.499Z,9.65
2019-05-10T03:50:21.105Z,9.69
2019-05-10T03:52:52.302Z,9.60
2019-05-10T03:55:20.258Z,9.57
2019-05-10T03:57:48.874Z,9.36
2019-05-10T04:00:17.740Z,9.27
2019-05-10T04:02:46.440Z,9.23
2019-05-10T04:05:15.723Z,9.16
2019-05-10T04:07:44.590Z,9.11
2019-05-10T04:10:14.232Z,9.04
2019-05-10T04:12:42.836Z,9.07
2019-05-10T04:15:11.497Z,9.06
2019-05-10T04:17:40.241Z,9.07
2019-05-10T04:20:09.319Z,9.08
2019-05-10T04:22:38.037Z,9.02
2019-05-10T04:25:06.945Z,8.95
2019-05-10T04:27:35.602Z,9.01
2019-05-10T04:30:04.361Z,9.02
2019-05-10T04:32:32.981Z,8.92
2019-05-10T04:35:01.596Z,8.90
2019-05-10T04:37:30.265Z,9.04
2019-05-10T04:39:58.939Z,8.97
2019-05-10T04:42:27.517Z,8.89
2019-05-10T04:44:56.134Z,8.96
2019-05-10T04:47:24.780Z,9.03
2019-05-10T04:49:53.410Z,9.11
2019-05-10T04:52:22.079Z,9.08
2019-05-10T04:54:50.676Z,9.11
2019-05-10T04:57:19.396Z,9.21
2019-05-10T04:59:47.998Z,9.29
2019-05-10T05:02:21.651Z,9.41
2019-05-10T05:04:47.125Z,9.49
2019-05-10T05:07:15.831Z,9.46
2019-05-10T05:09:44.453Z,9.57
2019-05-10T05:12:13.160Z,9.64
2019-05-10T05:14:42.030Z,9.66
2019-05-10T05:17:10.649Z,9.75
2019-05-10T05:19:40.998Z,9.77
2019-05-10T05:22:09.823Z,9.78
2019-05-10T05:24:38.425Z,9.80
2019-05-10T05:27:07.130Z,9.91
2019-05-10T05:29:35.747Z,9.92
2019-05-10T05:32:04.482Z,10.00
2019-05-10T05:34:33.099Z,10.05
2019-05-10T05:37:01.784Z,10.22
2019-05-10T05:39:30.406Z,10.22
2019-05-10T05:41:59.073Z,10.34
2019-05-10T05:44:27.965Z,10.42
2019-05-10T05:46:56.791Z,10.50
2019-05-10T05:49:25.461Z,10.56
2019-05-10T05:51:54.033Z,10.60
2019-05-10T05:54:22.865Z,10.66
2019-05-10T05:56:53.131Z,10.75
2019-05-10T05:59:23.753Z,10.78
2019-05-10T06:01:52.252Z,10.87
2019-05-10T06:04:20.881Z,10.97
2019-05-10T06:06:53.774Z,11.10
2019-05-10T06:09:19.816Z,11.12
2019-05-10T06:11:48.453Z,11.15
2019-05-10T06:14:17.069Z,11.17
2019-05-10T06:16:51.235Z,11.31
2019-05-10T06:19:20.457Z,11.46
2019-05-10T06:21:46.353Z,11.52
2019-05-10T06:24:15.864Z,11.54
2019-05-10T06:26:44.715Z,11.56
2019-05-10T06:29:17.686Z,11.53
2019-05-10T06:31:43.746Z,11.65
2019-05-10T06:34:12.442Z,11.63
2019-05-10T06:36:41.054Z,11.66
2019-05-10T06:39:09.808Z,11.81
2019-05-10T06:41:38.410Z,11.89
2019-05-10T06:44:07.088Z,11.91
2019-05-10T06:46:35.715Z,11.90
2019-05-10T06:49:08.449Z,11.97
2019-05-10T06:51:35.036Z,12.11
2019-05-10T06:54:03.641Z,12.29
2019-05-10T06:56:32.257Z,12.25
2019-05-10T06:59:13.168Z,12.20
2019-05-10T07:01:31.408Z,12.30
2019-05-10T07:04:00.080Z,12.37
2019-05-10T07:06:28.771Z,12.35
2019-05-10T07:08:59.192Z,12.40
2019-05-10T07:11:27.715Z,12.56
2019-05-10T07:13:56.335Z,12.63
2019-05-10T07:16:26.129Z,12.67
2019-05-10T07:19:00.347Z,12.76
2019-05-10T07:21:25.371Z,12.73
2019-05-10T07:23:53.955Z,12.84
2019-05-10T07:26:24.807Z,12.95
2019-05-10T07:28:57.774Z,13.09
2019-05-10T07:31:23.912Z,13.11
2019-05-10T07:33:52.601Z,13.18
2019-05-10T07:36:27.255Z,12.94
2019-05-10T07:38:51.542Z,13.19
2019-05-10T07:41:26.323Z,13.30
2019-05-10T07:43:50.521Z,13.49
2019-05-10T07:46:19.131Z,13.40
2019-05-10T07:48:53.445Z,13.37
2019-05-10T07:51:23.032Z,13.54
2019-05-10T07:53:48.532Z,13.59
2019-05-10T07:56:17.223Z,13.59
2019-05-10T07:58:45.832Z,13.49
2019-05-10T08:01:14.430Z,13.33
2019-05-10T08:03:48.166Z,13.40
2019-05-10T08:06:15.522Z,13.34
2019-05-10T08:08:43.841Z,13.39
2019-05-10T08:11:12.535Z,13.46
2019-05-10T08:13:41.320Z,13.48
2019-05-10T08:16:14.440Z,13.65
2019-05-10T08:18:42.477Z,13.78
2019-05-10T08:21:21.470Z,13.63
2019-05-10T08:23:43.741Z,13.59
2019-05-10T08:26:19.715Z,13.81
2019-05-10T08:28:44.655Z,14.06
2019-05-10T08:31:12.558Z,14.26
2019-05-10T08:33:44.170Z,14.18
2019-05-10T08:36:12.246Z,14.35
2019-05-10T08:38:46.770Z,14.36
2019-05-10T08:41:14.772Z,14.46
2019-05-10T08:43:43.108Z,14.45
2019-05-10T08:46:12.151Z,14.59
2019-05-10T08:48:46.549Z,14.43
2019-05-10T08:51:12.540Z,14.45
2019-05-10T08:53:42.080Z,14.66
2019-05-10T08:56:13.668Z,14.88
2019-05-10T08:58:42.175Z,14.90
2019-05-10T09:01:20.856Z,14.79
2019-05-10T09:03:42.210Z,14.73
2019-05-10T09:06:15.904Z,14.72
2019-05-10T09:08:43.200Z,14.73
2019-05-10T09:11:11.563Z,14.48
2019-05-10T09:13:44.963Z,14.67
2019-05-10T09:16:10.507Z,14.91
2019-05-10T09:18:46.283Z,14.72
2019-05-10T09:21:11.573Z,14.91
2019-05-10T09:23:42.501Z,14.99
2019-05-10T09:26:16.242Z,14.76
2019-05-10T09:28:42.157Z,14.67
2019-05-10T09:31:18.810Z,14.63
2019-05-10T09:33:49.256Z,14.39
2019-05-10T09:36:12.504Z,14.46
2019-05-10T09:38:43.411Z,14.71
2019-05-10T09:41:11.919Z,14.89
2019-05-10T09:43:48.489Z,14.93
2019-05-10T09:46:11.473Z,15.03
2019-05-10T09:48:44.653Z,15.10
2019-05-10T09:51:13.805Z,15.19
2019-05-10T09:53:42.073Z,15.24
2019-05-10T09:56:10.761Z,15.38
2019-05-10T09:58:39.417Z,15.45
2019-05-10T10:01:16.991Z,15.64
2019-05-10T10:03:43.210Z,15.58
2019-05-10T10:06:11.317Z,15.48
2019-05-10T10:08:43.573Z,15.36
2019-05-10T10:11:15.053Z,15.41
2019-05-10T10:13:43.829Z,15.64
2019-05-10T10:16:14.740Z,15.77
2019-05-10T10:18:40.705Z,16.00
2019-05-10T10:21:10.384Z,15.95
2019-05-10T10:23:39.673Z,15.94
2019-05-10T10:26:12.707Z,15.98
2019-05-10T10:28:39.690Z,16.08
2019-05-10T10:31:08.760Z,15.96
2019-05-10T10:33:38.061Z,16.13
2019-05-10T10:36:09.931Z,16.15
2019-05-10T10:38:45.378Z,16.28
2019-05-10T10:41:08.291Z,16.38
2019-05-10T10:43:37.396Z,16.18
2019-05-10T10:46:11.973Z,16.28
2019-05-10T10:48:37.069Z,16.42
2019-05-10T10:51:07.914Z,16.46
2019-05-10T10:53:36.196Z,16.38
2019-05-10T10:56:07.493Z,16.44
2019-05-10T10:58:35.240Z,16.48
2019-05-10T11:01:10.786Z,16.53
2019-05-10T11:03:34.230Z,16.55
2019-05-10T11:06:02.845Z,16.55
2019-05-10T11:08:33.220Z,16.73
2019-05-10T11:11:01.922Z,16.72
2019-05-10T11:13:43.964Z,16.72
2019-05-10T11:16:09.879Z,16.78
2019-05-10T11:18:31.892Z,16.85
2019-05-10T11:21:01.945Z,16.77
2019-05-10T11:23:38.725Z,17.08
2019-05-10T11:26:01.448Z,17.06
2019-05-10T11:28:38.673Z,17.14
2019-05-10T11:31:01.198Z,17.18
2019-05-10T11:33:33.352Z,17.38
2019-05-10T11:36:05.824Z,17.52
2019-05-10T11:38:31.795Z,17.60
2019-05-10T11:41:01.939Z,17.67
2019-05-10T11:43:31.406Z,17.64
2019-05-10T11:46:00.142Z,17.65
2019-05-10T11:48:36.929Z,17.55
2019-05-10T11:50:59.170Z,17.64
2019-05-10T11:53:27.767Z,17.73
2019-05-10T11:55:56.409Z,17.88
2019-05-10T11:58:25.003Z,17.79
2019-05-10T12:00:59.460Z,17.70
2019-05-10T12:03:23.958Z,17.74
2019-05-10T12:06:04.560Z,17.51
2019-05-10T12:08:23.002Z,17.77
2019-05-10T12:10:54.435Z,17.87
2019-05-10T12:13:24.803Z,17.84
2019-05-10T12:15:52.393Z,17.85
2019-05-10T12:18:26.514Z,18.07
2019-05-10T12:21:00.149Z,18.16
2019-05-10T12:23:24.884Z,18.22
2019-05-10T12:26:49.962Z,18.55
2019-05-10T12:28:28.472Z,18.70
2019-05-10T12:30:52.722Z,18.85
2019-05-10T12:33:27.397Z,18.59
2019-05-10T12:35:51.667Z,18.71
2019-05-10T12:38:23.486Z,18.85
2019-05-10T12:40:51.435Z,18.99
2019-05-10T12:43:21.142Z,18.72
2019-05-10T12:46:42.198Z,18.71
2019-05-10T12:49:12.022Z,18.88
2019-05-10T12:51:43.147Z,19.02
2019-05-10T12:54:11.383Z,18.98
2019-05-10T12:56:43.710Z,18.91
2019-05-10T12:59:10.514Z,18.87
2019-05-10T13:01:39.194Z,18.57
2019-05-10T13:04:14.630Z,18.56
2019-05-10T13:06:38.117Z,18.79
2019-05-10T13:09:07.325Z,18.59
2019-05-10T13:11:36.096Z,18.29
2019-05-10T13:14:07.598Z,18.58
2019-05-10T13:16:35.109Z,18.50
2019-05-10T13:19:03.728Z,18.27
2019-05-10T13:21:32.354Z,18.27
2019-05-10T13:24:01.035Z,18.48
2019-05-10T13:26:29.658Z,18.58
2019-05-10T13:29:02.225Z,18.61
2019-05-10T13:31:28.650Z,18.58
2019-05-10T13:33:57.364Z,18.83
2019-05-10T13:36:30.553Z,18.84
2019-05-10T13:38:56.396Z,19.13
2019-05-10T13:41:26.619Z,19.13
2019-05-10T13:43:58.839Z,19.30
2019-05-10T13:46:25.717Z,19.12
2019-05-10T13:48:54.321Z,19.21
2019-05-10T13:51:22.956Z,19.28
2019-05-10T13:53:53.781Z,19.60
2019-05-10T13:56:21.949Z,19.60
2019-05-10T13:58:50.588Z,19.39
2019-05-10T14:01:19.235Z,19.23
2019-05-10T14:03:53.914Z,19.23
2019-05-10T14:06:18.214Z,19.31
2019-05-10T14:08:48.319Z,19.55
2019-05-10T14:11:17.333Z,19.61
2019-05-10T14:13:46.034Z,19.37
2019-05-10T14:16:19.478Z,18.98
2019-05-10T14:18:45.022Z,19.14
2019-05-10T14:21:13.623Z,19.14
2019-05-10T14:23:42.261Z,19.28
2019-05-10T14:26:15.839Z,19.07
2019-05-10T14:28:41.249Z,19.12
2019-05-10T14:31:09.923Z,19.24
2019-05-10T14:33:38.553Z,19.30
2019-05-10T14:36:07.146Z,19.45
2019-05-10T14:38:35.775Z,19.46
2019-05-10T14:41:11.074Z,19.41
2019-05-10T14:43:34.853Z,19.41
2019-05-10T14:46:03.616Z,19.44
2019-05-10T14:48:35.406Z,19.43
2019-05-10T14:51:09.852Z,19.43
2019-05-10T14:53:32.942Z,19.25
2019-05-10T14:56:01.692Z,19.24
2019-05-10T14:58:30.303Z,19.38
2019-05-10T15:00:58.985Z,19.25
2019-05-10T15:03:27.612Z,19.46
2019-05-10T15:06:00.994Z,19.46
2019-05-10T15:08:26.630Z,19.46
2019-05-10T15:10:57.310Z,19.45
2019-05-10T15:13:28.168Z,19.43
2019-05-10T15:15:55.995Z,19.54
2019-05-10T15:18:24.672Z,19.53
2019-05-10T15:20:53.273Z,19.53
2019-05-10T15:23:21.912Z,19.43
2019-05-10T15:25:57.235Z,19.43
2019-05-10T15:28:20.847Z,19.50
2019-05-10T15:30:52.587Z,19.38
2019-05-10T15:33:19.797Z,19.38
2019-05-10T15:35:51.980Z,18.98
2019-05-10T15:38:18.740Z,19.16
2019-05-10T15:40:47.447Z,19.17
2019-05-10T15:43:18.699Z,19.13
2019-05-10T15:45:52.494Z,19.13
2019-05-10T15:48:17.261Z,19.06
2019-05-10T15:50:45.891Z,18.97
2019-05-10T15:53:19.333Z,19.12
2019-05-10T15:55:45.024Z,19.10
2019-05-10T15:58:13.613Z,19.13
2019-05-10T16:00:42.233Z,19.09
2019-05-10T16:03:10.838Z,19.21
2019-05-10T16:05:43.624Z,19.38
2019-05-10T16:08:09.810Z,19.47
2019-05-10T16:10:40.719Z,19.51
2019-05-10T16:13:08.857Z,19.54
2019-05-10T16:15:37.485Z,19.41
2019-05-10T16:18:06.185Z,19.13
2019-05-10T16:20:37.122Z,19.08
2019-05-10T16:23:09.020Z,18.66
2019-05-10T16:25:41.843Z,18.61
2019-05-10T16:28:05.996Z,18.63
2019-05-10T16:30:36.586Z,18.40
2019-05-10T16:33:09.756Z,18.45
2019-05-10T16:35:38.992Z,18.62
2019-05-10T16:38:06.190Z,18.77
2019-05-10T16:40:34.822Z,18.63
2019-05-10T16:43:06.757Z,18.79
2019-05-10T16:45:34.092Z,19.00
2019-05-10T16:48:05.602Z,18.91
2019-05-10T16:50:33.863Z,18.78
2019-05-10T16:53:05.813Z,18.82
2019-05-10T16:55:35.592Z,19.05
2019-05-10T16:58:03.530Z,18.98
2019-05-10T17:00:32.258Z,18.74
2019-05-10T17:03:00.890Z,18.74
2019-05-10T17:05:29.519Z,18.89
2019-05-10T17:07:58.746Z,18.89
2019-05-10T17:10:33.120Z,18.67
2019-05-10T17:12:59.446Z,18.57
2019-05-10T17:15:28.447Z,18.24
2019-05-10T17:17:57.153Z,18.20
2019-05-10T17:20:25.755Z,18.07
2019-05-10T17:22:54.453Z,18.07
2019-05-10T17:25:23.058Z,18.02
2019-05-10T17:27:57.758Z,18.13
2019-05-10T17:30:27.577Z,18.06
2019-05-10T17:32:52.463Z,18.19
2019-05-10T17:35:21.092Z,18.10
2019-05-10T17:37:52.864Z,18.00
2019-05-10T17:40:20.081Z,17.99
2019-05-10T17:42:51.496Z,17.74
2019-05-10T17:45:19.127Z,17.80
2019-05-10T17:47:47.786Z,17.77
2019-05-10T17:50:16.526Z,17.82
2019-05-10T17:52:45.185Z,17.66
2019-05-10T17:55:16.748Z,17.62
2019-05-10T17:57:48.663Z,17.52
2019-05-10T18:00:15.027Z,17.61
2019-05-10T18:02:43.677Z,17.66
2019-05-10T18:05:12.461Z,17.66
2019-05-10T18:07:41.091Z,17.56
2019-05-10T18:10:09.890Z,17.52
2019-05-10T18:12:38.550Z,17.56
2019-05-10T18:15:08.239Z,17.48
2019-05-10T18:17:37.004Z,17.38
2019-05-10T18:20:06.201Z,17.11
2019-05-10T18:22:42.488Z,17.12
2019-05-10T18:25:19.366Z,17.00
2019-05-10T18:27:41.725Z,16.94
2019-05-10T18:30:17.453Z,16.91
2019-05-10T18:32:49.588Z,16.93
2019-05-10T18:35:32.928Z,16.80
2019-05-10T18:38:08.601Z,16.75
2019-05-10T18:40:41.368Z,16.64
2019-05-10T18:43:11.062Z,16.55
2019-05-10T18:45:40.595Z,16.41
2019-05-10T18:48:13.483Z,16.28
2019-05-10T18:50:47.412Z,16.35
2019-05-10T18:53:21.783Z,16.40
2019-05-10T18:55:53.587Z,16.32
2019-05-10T18:58:28.989Z,16.28
2019-05-10T19:01:00.787Z,16.25
2019-05-10T19:03:33.577Z,16.18
2019-05-10T19:06:14.403Z,16.14
2019-05-10T19:08:45.215Z,16.03
2019-05-10T19:11:15.389Z,15.96
2019-05-10T19:13:53.741Z,15.89
2019-05-10T19:16:32.112Z,15.79
2019-05-10T19:19:01.825Z,15.76
2019-05-10T19:21:37.296Z,15.63
2019-05-10T19:24:04.310Z,15.64
2019-05-10T19:26:38.005Z,15.58
2019-05-10T19:29:09.888Z,15.49
2019-05-10T19:31:41.628Z,15.43
2019-05-10T19:34:15.447Z,15.37
2019-05-10T19:36:45.137Z,15.24
2019-05-10T19:39:14.759Z,15.24
2019-05-10T19:41:46.703Z,15.02
2019-05-10T19:44:20.246Z,14.98
2019-05-10T19:46:50.454Z,14.81
2019-05-10T19:49:23.097Z,14.80
2019-05-10T19:52:07.218Z,14.79
2019-05-10T19:54:51.125Z,14.86
2019-05-10T19:57:28.188Z,14.77
2019-05-10T20:00:19.526Z,14.73
2019-05-10T20:02:53.770Z,14.69
2019-05-10T20:05:28.890Z,14.66
2019-05-10T20:08:00.029Z,14.67
2019-05-10T20:10:36.397Z,14.38
2019-05-10T20:13:25.987Z,14.39
2019-05-10T20:16:01.253Z,14.41
2019-05-10T20:18:31.248Z,14.30
2019-05-10T20:21:15.985Z,14.31
2019-05-10T20:23:47.023Z,14.44
2019-05-10T20:26:17.231Z,14.46
2019-05-10T20:28:48.484Z,14.48
2019-05-10T20:31:18.304Z,14.54
2019-05-10T20:33:49.931Z,14.52
2019-05-10T20:36:23.624Z,14.43
2019-05-10T20:38:55.387Z,14.21
2019-05-10T20:41:27.170Z,14.06
2019-05-10T20:43:57.700Z,14.12
2019-05-10T20:46:29.275Z,14.17
2019-05-10T20:49:02.543Z,13.96
2019-05-10T20:51:32.387Z,13.85
2019-05-10T20:54:03.021Z,13.74
2019-05-10T20:56:48.067Z,13.90
2019-05-10T20:59:20.785Z,13.89
2019-05-10T21:01:54.411Z,13.67
2019-05-10T21:04:24.075Z,13.65
2019-05-10T21:06:53.663Z,13.61
2019-05-10T21:09:24.392Z,13.71
2019-05-10T21:11:57.577Z,13.52
2019-05-10T21:14:28.559Z,13.43
2019-05-10T21:17:21.699Z,13.36
2019-05-10T21:19:51.942Z,13.48
2019-05-10T21:22:45.551Z,13.60
2019-05-10T21:25:23.947Z,13.62
2019-05-10T21:27:59.432Z,13.65
2019-05-10T21:33:37.866Z,13.64
2019-05-10T21:36:08.836Z,13.65
2019-05-10T21:38:41.740Z,13.69
2019-05-10T21:41:30.881Z,13.75
2019-05-10T21:44:13.224Z,13.65
2019-05-10T21:46:42.715Z,13.65
2019-05-10T21:49:11.805Z,13.66
2019-05-10T21:51:45.605Z,13.68
2019-05-10T21:54:19.739Z,13.60
2019-05-10T21:56:52.241Z,13.70
2019-05-10T21:59:26.562Z,13.87
2019-05-10T22:01:58.757Z,13.81
2019-05-10T22:04:31.359Z,13.72
2019-05-10T22:07:06.926Z,13.54
2019-05-10T22:09:40.710Z,13.54
2019-05-10T22:12:10.292Z,13.56
2019-05-10T22:14:40.105Z,13.58
2019-05-10T22:17:15.919Z,13.62
2019-05-10T22:19:45.378Z,14.08
2019-05-10T22:22:37.002Z,14.26
2019-05-10T22:25:08.423Z,14.21
2019-05-10T22:27:40.308Z,14.22
2019-05-10T22:30:18.534Z,13.92
2019-05-10T22:33:05.015Z,13.79
2019-05-10T22:35:41.058Z,13.63
2019-05-10T22:38:22.823Z,13.48
2019-05-10T22:41:04.116Z,13.68
2019-05-10T22:43:40.803Z,13.67
2019-05-10T22:46:11.372Z,13.70
2019-05-10T22:48:43.438Z,13.68
2019-05-10T22:51:16.399Z,13.60
2019-05-10T22:53:59.650Z,13.54
2019-05-10T22:56:23.570Z,13.49
2019-05-10T22:59:03.028Z,13.42
2019-05-10T23:01:35.373Z,13.40
2019-05-10T23:04:06.275Z,13.46
2019-05-10T23:06:38.208Z,13.53
2019-05-10T23:09:23.935Z,13.52
2019-05-10T23:11:49.145Z,13.44
2019-05-10T23:14:18.870Z,13.43
2019-05-10T23:16:50.187Z,13.51
2019-05-10T23:19:21.228Z,13.10
2019-05-10T23:21:52.580Z,12.95
2019-05-10T23:24:37.020Z,13.14
2019-05-10T23:27:06.694Z,13.39
2019-05-10T23:29:35.398Z,13.51
2019-05-10T23:32:04.178Z,13.46
2019-05-10T23:34:32.822Z,13.42
2019-05-10T23:37:01.442Z,13.61
2019-05-10T23:39:40.416Z,13.52
2019-05-10T23:42:00.562Z,13.58
2019-05-10T23:44:29.168Z,13.75
2019-05-10T23:46:57.902Z,13.83
2019-05-10T23:49:26.548Z,13.72
2019-05-10T23:51:55.110Z,13.76
2019-05-10T23:54:23.714Z,13.74
2019-05-10T23:56:52.342Z,13.67
2019-05-10T23:59:21.027Z,13.78
